createdAt,value
2016-11-10T00:00:33.646Z,180.00
2016-11-10T00:01:34.300Z,202.50
2016-11-10T00:02:34.679Z,202.50
2016-11-10T00:03:35.298Z,180.00
2016-11-10T00:04:35.787Z,202.50
2016-11-10T00:05:36.302Z,180.00
2016-11-10T00:06:36.934Z,180.00
2016-11-10T00:07:37.299Z,247.50
2016-11-10T00:08:37.630Z,225.00
2016-11-10T00:09:38.175Z,180.00
2016-11-10T00:10:38.778Z,180.00
2016-11-10T00:11:39.126Z,180.00
2016-11-10T00:12:39.632Z,225.00
2016-11-10T00:13:40.147Z,247.50
2016-11-10T00:14:40.782Z,202.50
2016-11-10T00:15:41.137Z,180.00
2016-11-10T00:16:41.673Z,202.50
2016-11-10T00:17:42.129Z,202.50
2016-11-10T00:18:42.621Z,247.50
2016-11-10T00:19:43.262Z,225.00
2016-11-10T00:20:43.616Z,225.00
2016-11-10T00:21:44.115Z,202.50
2016-11-10T00:22:44.620Z,202.50
2016-11-10T00:23:45.108Z,225.00
2016-11-10T00:24:45.612Z,225.00
2016-11-10T00:25:46.104Z,225.00
2016-11-10T00:26:46.749Z,247.50
2016-11-10T00:27:47.127Z,225.00
2016-11-10T00:28:47.755Z,225.00
2016-11-10T00:29:48.119Z,292.50
2016-11-10T00:30:48.593Z,225.00
2016-11-10T00:31:49.095Z,202.50
2016-11-10T00:32:49.611Z,180.00
2016-11-10T00:33:50.239Z,202.50
2016-11-10T00:34:50.612Z,202.50
2016-11-10T00:35:51.235Z,202.50
2016-11-10T00:36:51.621Z,202.50
2016-11-10T00:37:52.108Z,180.00
2016-11-10T00:38:52.588Z,202.50
2016-11-10T00:39:53.090Z,202.50
2016-11-10T00:40:53.623Z,180.00
2016-11-10T00:41:54.236Z,202.50
2016-11-10T00:42:54.586Z,202.50
2016-11-10T00:43:55.230Z,180.00
2016-11-10T00:44:55.600Z,202.50
2016-11-10T00:45:56.224Z,270.00
2016-11-10T00:46:56.597Z,225.00
2016-11-10T00:47:57.089Z,202.50
2016-11-10T00:48:57.875Z,292.50
2016-11-10T00:49:58.095Z,225.00
2016-11-10T00:50:58.602Z,202.50
2016-11-10T00:51:59.220Z,180.00
2016-11-10T00:52:59.588Z,180.00
2016-11-10T00:54:00.100Z,225.00
2016-11-10T00:55:00.739Z,202.50
2016-11-10T00:56:01.100Z,180.00
2016-11-10T00:57:01.750Z,337.50
2016-11-10T00:58:02.078Z,337.50
2016-11-10T00:59:02.605Z,337.50
2016-11-10T01:00:03.218Z,337.50
2016-11-10T01:01:03.595Z,337.50
2016-11-10T01:02:04.065Z,225.00
2016-11-10T01:03:04.719Z,225.00
2016-11-10T01:04:05.060Z,202.50
2016-11-10T01:05:05.571Z,180.00
2016-11-10T01:06:06.195Z,337.50
2016-11-10T01:07:06.546Z,337.50
2016-11-10T01:08:07.192Z,337.50
2016-11-10T01:09:07.583Z,337.50
2016-11-10T01:10:08.047Z,337.50
2016-11-10T01:11:08.559Z,337.50
2016-11-10T01:12:09.039Z,337.50
2016-11-10T01:13:09.688Z,337.50
2016-11-10T01:14:10.183Z,337.50
2016-11-10T01:15:10.574Z,337.50
2016-11-10T01:16:11.037Z,337.50
2016-11-10T01:17:11.682Z,292.50
2016-11-10T01:18:12.178Z,292.50
2016-11-10T01:19:12.679Z,337.50
2016-11-10T01:20:13.079Z,337.50
2016-11-10T01:21:13.673Z,202.50
2016-11-10T01:22:14.027Z,337.50
2016-11-10T01:23:14.529Z,337.50
2016-11-10T01:24:15.075Z,337.50
2016-11-10T01:25:15.684Z,202.50
2016-11-10T01:26:16.174Z,337.50
2016-11-10T01:27:16.514Z,337.50
2016-11-10T01:28:17.020Z,337.50
2016-11-10T01:29:17.518Z,315.00
2016-11-10T01:30:18.022Z,337.50
2016-11-10T01:31:18.525Z,315.00
2016-11-10T01:32:19.171Z,292.50
2016-11-10T01:33:19.530Z,337.50
2016-11-10T01:34:20.034Z,292.50
2016-11-10T01:35:20.530Z,270.00
2016-11-10T01:36:21.015Z,270.00
2016-11-10T01:37:21.669Z,247.50
2016-11-10T01:38:22.016Z,337.50
2016-11-10T01:39:22.537Z,337.50
2016-11-10T01:40:23.159Z,337.50
2016-11-10T01:41:23.658Z,225.00
2016-11-10T01:42:24.011Z,225.00
2016-11-10T01:43:24.654Z,270.00
2016-11-10T01:44:25.060Z,292.50
2016-11-10T01:45:25.549Z,270.00
2016-11-10T01:46:26.000Z,225.00
2016-11-10T01:47:26.562Z,247.50
2016-11-10T01:48:26.996Z,315.00
2016-11-10T01:49:27.649Z,337.50
2016-11-10T01:50:28.142Z,337.50
2016-11-10T01:51:28.491Z,315.00
2016-11-10T01:52:28.989Z,315.00
2016-11-10T01:53:29.637Z,337.50
2016-11-10T01:54:30.151Z,337.50
2016-11-10T01:55:30.481Z,225.00
2016-11-10T01:56:30.996Z,270.00
2016-11-10T01:57:31.482Z,337.50
2016-11-10T01:58:31.981Z,337.50
2016-11-10T01:59:32.481Z,180.00
2016-11-10T02:00:33.004Z,180.00
2016-11-10T02:01:33.633Z,337.50
2016-11-10T02:02:34.131Z,337.50
2016-11-10T02:03:34.508Z,292.50
2016-11-10T02:04:35.002Z,270.00
2016-11-10T02:05:35.468Z,225.00
2016-11-10T02:06:35.993Z,337.50
2016-11-10T02:07:36.609Z,202.50
2016-11-10T02:08:36.978Z,225.00
2016-11-10T02:09:37.619Z,202.50
2016-11-10T02:10:37.968Z,270.00
2016-11-10T02:11:38.485Z,337.50
2016-11-10T02:12:38.967Z,270.00
2016-11-10T02:13:39.603Z,337.50
2016-11-10T02:14:40.251Z,225.00
2016-11-10T02:15:40.607Z,202.50
2016-11-10T02:16:40.954Z,270.00
2016-11-10T02:17:41.477Z,337.50
2016-11-10T02:18:42.103Z,337.50
2016-11-10T02:19:42.449Z,337.50
2016-11-10T02:20:42.956Z,247.50
2016-11-10T02:21:43.455Z,202.50
2016-11-10T02:22:44.098Z,337.50
2016-11-10T02:23:44.440Z,292.50
2016-11-10T02:24:45.103Z,337.50
2016-11-10T02:25:45.456Z,337.50
2016-11-10T02:26:46.081Z,337.50
2016-11-10T02:27:46.460Z,337.50
2016-11-10T02:28:47.077Z,337.50
2016-11-10T02:29:47.443Z,337.50
2016-11-10T02:30:47.939Z,337.50
2016-11-10T02:31:48.453Z,337.50
2016-11-10T02:32:48.925Z,337.50
2016-11-10T02:33:49.577Z,337.50
2016-11-10T02:34:50.070Z,337.50
2016-11-10T02:35:50.428Z,337.50
2016-11-10T02:36:51.067Z,337.50
2016-11-10T02:37:51.438Z,337.50
2016-11-10T02:38:51.943Z,337.50
2016-11-10T02:39:52.423Z,337.50
2016-11-10T02:40:52.943Z,337.50
2016-11-10T02:41:53.414Z,337.50
2016-11-10T02:42:53.921Z,337.50
2016-11-10T02:43:54.420Z,337.50
2016-11-10T02:44:54.906Z,270.00
2016-11-10T02:45:55.413Z,337.50
2016-11-10T02:46:56.044Z,337.50
2016-11-10T02:47:56.425Z,337.50
2016-11-10T02:48:57.060Z,337.50
2016-11-10T02:49:57.552Z,337.50
2016-11-10T02:50:57.915Z,337.50
2016-11-10T02:51:58.554Z,337.50
2016-11-10T02:52:58.901Z,337.50
2016-11-10T02:53:59.552Z,337.50
2016-11-10T02:54:59.896Z,337.50
2016-11-10T02:56:00.555Z,337.50
2016-11-10T02:57:00.918Z,337.50
2016-11-10T02:58:01.548Z,337.50
2016-11-10T02:59:01.899Z,337.50
2016-11-10T03:00:02.398Z,337.50
2016-11-10T03:01:02.890Z,337.50
2016-11-10T03:02:03.390Z,337.50
2016-11-10T03:03:03.927Z,337.50
2016-11-10T03:04:04.532Z,337.50
2016-11-10T03:05:05.028Z,337.50
2016-11-10T03:06:05.382Z,337.50
2016-11-10T03:07:05.878Z,337.50
2016-11-10T03:08:06.370Z,337.50
2016-11-10T03:09:06.901Z,337.50
2016-11-10T03:10:07.372Z,337.50
2016-11-10T03:11:08.020Z,337.50
2016-11-10T03:12:08.511Z,337.50
2016-11-10T03:13:08.897Z,337.50
2016-11-10T03:14:09.412Z,337.50
2016-11-10T03:15:10.006Z,337.50
2016-11-10T03:16:10.378Z,337.50
2016-11-10T03:17:10.879Z,337.50
2016-11-10T03:18:11.497Z,337.50
2016-11-10T03:19:11.868Z,337.50
2016-11-10T03:20:12.495Z,337.50
2016-11-10T03:21:12.842Z,337.50
2016-11-10T03:22:13.492Z,337.50
2016-11-10T03:23:13.989Z,337.50
2016-11-10T03:24:14.341Z,337.50
2016-11-10T03:25:14.845Z,337.50
2016-11-10T03:26:15.487Z,337.50
2016-11-10T03:27:15.882Z,337.50
2016-11-10T03:28:16.337Z,337.50
2016-11-10T03:29:16.997Z,337.50
2016-11-10T03:30:17.492Z,337.50
2016-11-10T03:31:17.994Z,337.50
2016-11-10T03:32:18.347Z,337.50
2016-11-10T03:33:18.858Z,337.50
2016-11-10T03:34:19.359Z,337.50
2016-11-10T03:35:19.844Z,337.50
2016-11-10T03:36:20.490Z,337.50
2016-11-10T03:37:20.984Z,337.50
2016-11-10T03:38:21.505Z,337.50
2016-11-10T03:39:21.977Z,337.50
2016-11-10T03:40:22.630Z,337.50
2016-11-10T03:41:22.974Z,337.50
2016-11-10T03:42:23.373Z,337.50
2016-11-10T03:43:23.847Z,337.50
2016-11-10T03:44:24.468Z,337.50
2016-11-10T03:45:24.965Z,337.50
2016-11-10T03:46:25.464Z,337.50
2016-11-10T03:47:25.966Z,337.50
2016-11-10T03:48:26.459Z,337.50
2016-11-10T03:49:26.957Z,337.50
2016-11-10T03:50:27.308Z,337.50
2016-11-10T03:51:27.949Z,337.50
2016-11-10T03:52:28.459Z,337.50
2016-11-10T03:53:28.949Z,337.50
2016-11-10T03:54:29.300Z,337.50
2016-11-10T03:55:29.820Z,337.50
2016-11-10T03:56:30.453Z,337.50
2016-11-10T03:57:30.794Z,337.50
2016-11-10T03:58:31.298Z,337.50
2016-11-10T03:59:31.786Z,337.50
2016-11-10T04:00:32.432Z,337.50
2016-11-10T04:01:32.783Z,337.50
2016-11-10T04:02:33.304Z,337.50
2016-11-10T04:03:33.802Z,337.50
2016-11-10T04:04:34.298Z,337.50
2016-11-10T04:05:34.919Z,337.50
2016-11-10T04:06:35.316Z,337.50
2016-11-10T04:07:35.925Z,337.50
2016-11-10T04:08:36.282Z,337.50
2016-11-10T04:09:36.927Z,337.50
2016-11-10T04:10:37.278Z,337.50
2016-11-10T04:11:37.942Z,337.50
2016-11-10T04:12:38.426Z,337.50
2016-11-10T04:13:38.787Z,337.50
2016-11-10T04:14:39.298Z,337.50
2016-11-10T04:15:39.786Z,337.50
2016-11-10T04:16:40.269Z,337.50
2016-11-10T04:17:40.771Z,337.50
2016-11-10T04:18:41.283Z,337.50
2016-11-10T04:19:41.778Z,337.50
2016-11-10T04:20:42.304Z,337.50
2016-11-10T04:21:42.757Z,337.50
2016-11-10T04:22:43.273Z,337.50
2016-11-10T04:23:43.959Z,337.50
2016-11-10T04:24:44.264Z,337.50
2016-11-10T04:25:44.756Z,337.50
2016-11-10T04:26:45.274Z,337.50
2016-11-10T04:27:45.754Z,337.50
2016-11-10T04:28:46.263Z,337.50
2016-11-10T04:29:46.766Z,337.50
2016-11-10T04:30:47.262Z,337.50
2016-11-10T04:31:47.746Z,337.50
2016-11-10T04:32:48.260Z,337.50
2016-11-10T04:33:48.745Z,337.50
2016-11-10T04:34:49.242Z,337.50
2016-11-10T04:35:49.744Z,337.50
2016-11-10T04:36:50.241Z,337.50
2016-11-10T04:37:50.732Z,337.50
2016-11-10T04:38:51.229Z,337.50
2016-11-10T04:39:51.871Z,337.50
2016-11-10T04:40:52.380Z,337.50
2016-11-10T04:41:52.875Z,337.50
2016-11-10T04:42:53.389Z,337.50
2016-11-10T04:43:53.868Z,337.50
2016-11-10T04:44:54.217Z,337.50
2016-11-10T04:45:54.870Z,337.50
2016-11-10T04:46:55.256Z,337.50
2016-11-10T04:47:55.775Z,337.50
2016-11-10T04:48:56.245Z,337.50
2016-11-10T04:49:56.873Z,337.50
2016-11-10T04:50:57.276Z,337.50
2016-11-10T04:51:57.877Z,337.50
2016-11-10T04:52:58.381Z,337.50
2016-11-10T04:53:58.720Z,337.50
2016-11-10T04:54:59.216Z,337.50
2016-11-10T04:55:59.714Z,337.50
2016-11-10T04:57:00.214Z,337.50
2016-11-10T04:58:00.857Z,337.50
2016-11-10T04:59:01.214Z,337.50
2016-11-10T05:00:01.733Z,337.50
2016-11-10T05:01:02.356Z,337.50
2016-11-10T05:02:02.711Z,337.50
2016-11-10T05:03:03.215Z,337.50
2016-11-10T05:04:03.847Z,337.50
2016-11-10T05:05:04.211Z,337.50
2016-11-10T05:06:04.995Z,337.50
2016-11-10T05:07:05.199Z,337.50
2016-11-10T05:08:05.837Z,337.50
2016-11-10T05:09:06.248Z,337.50
2016-11-10T05:10:06.729Z,337.50
2016-11-10T05:11:07.185Z,337.50
2016-11-10T05:12:07.845Z,337.50
2016-11-10T05:13:08.177Z,337.50
2016-11-10T05:14:08.709Z,337.50
2016-11-10T05:15:09.184Z,337.50
2016-11-10T05:16:09.816Z,337.50
2016-11-10T05:17:10.172Z,337.50
2016-11-10T05:18:10.820Z,337.50
2016-11-10T05:19:11.321Z,337.50
2016-11-10T05:20:11.817Z,337.50
2016-11-10T05:21:12.167Z,337.50
2016-11-10T05:22:12.682Z,337.50
2016-11-10T05:23:13.170Z,337.50
2016-11-10T05:24:13.672Z,337.50
2016-11-10T05:25:14.167Z,270.00
2016-11-10T05:26:14.834Z,315.00
2016-11-10T05:27:15.224Z,337.50
2016-11-10T05:28:15.735Z,337.50
2016-11-10T05:29:16.175Z,337.50
2016-11-10T05:30:16.670Z,337.50
2016-11-10T05:31:17.319Z,337.50
2016-11-10T05:32:17.827Z,337.50
2016-11-10T05:33:18.165Z,337.50
2016-11-10T05:34:18.813Z,337.50
2016-11-10T05:35:19.314Z,337.50
2016-11-10T05:36:19.713Z,337.50
2016-11-10T05:37:20.316Z,337.50
2016-11-10T05:38:20.655Z,337.50
2016-11-10T05:39:21.191Z,337.50
2016-11-10T05:40:21.651Z,337.50
2016-11-10T05:41:22.175Z,337.50
2016-11-10T05:42:22.793Z,337.50
2016-11-10T05:43:23.170Z,270.00
2016-11-10T05:44:23.686Z,337.50
2016-11-10T05:45:24.192Z,337.50
2016-11-10T05:46:24.646Z,337.50
2016-11-10T05:47:25.177Z,337.50
2016-11-10T05:48:25.929Z,337.50
2016-11-10T05:49:26.142Z,337.50
2016-11-10T05:50:26.629Z,337.50
2016-11-10T05:51:27.121Z,337.50
2016-11-10T05:52:27.773Z,337.50
2016-11-10T05:53:28.123Z,337.50
2016-11-10T05:54:28.776Z,337.50
2016-11-10T05:55:29.263Z,337.50
2016-11-10T05:56:29.759Z,337.50
2016-11-10T05:57:30.129Z,337.50
2016-11-10T05:58:30.755Z,337.50
2016-11-10T05:59:31.252Z,337.50
2016-11-10T06:00:31.632Z,337.50
2016-11-10T06:01:32.145Z,337.50
2016-11-10T06:02:32.603Z,337.50
2016-11-10T06:03:33.114Z,337.50
2016-11-10T06:04:33.747Z,337.50
2016-11-10T06:05:34.125Z,337.50
2016-11-10T06:06:34.606Z,337.50
2016-11-10T06:07:35.249Z,337.50
2016-11-10T06:08:35.606Z,337.50
2016-11-10T06:09:36.097Z,337.50
2016-11-10T06:10:36.594Z,337.50
2016-11-10T06:11:37.118Z,315.00
2016-11-10T06:12:37.643Z,337.50
2016-11-10T06:13:38.241Z,337.50
2016-11-10T06:14:38.590Z,337.50
2016-11-10T06:15:39.111Z,337.50
2016-11-10T06:16:39.600Z,337.50
2016-11-10T06:17:40.085Z,337.50
2016-11-10T06:18:40.584Z,337.50
2016-11-10T06:19:41.226Z,337.50
2016-11-10T06:20:41.797Z,337.50
2016-11-10T06:21:42.073Z,337.50
2016-11-10T06:22:42.575Z,337.50
2016-11-10T06:23:43.094Z,337.50
2016-11-10T06:24:43.729Z,292.50
2016-11-10T06:25:44.076Z,247.50
2016-11-10T06:26:44.712Z,337.50
2016-11-10T06:27:45.069Z,337.50
2016-11-10T06:28:45.719Z,337.50
2016-11-10T06:29:46.213Z,337.50
2016-11-10T06:30:46.581Z,337.50
2016-11-10T06:31:47.236Z,337.50
2016-11-10T06:32:47.566Z,337.50
2016-11-10T06:33:48.070Z,337.50
2016-11-10T06:34:48.699Z,337.50
2016-11-10T06:35:49.051Z,337.50
2016-11-10T06:36:49.568Z,337.50
2016-11-10T06:37:50.055Z,337.50
2016-11-10T06:38:50.563Z,337.50
2016-11-10T06:39:51.191Z,337.50
2016-11-10T06:40:51.553Z,337.50
2016-11-10T06:41:52.053Z,337.50
2016-11-10T06:42:52.683Z,337.50
2016-11-10T06:43:53.037Z,337.50
2016-11-10T06:44:53.700Z,337.50
2016-11-10T06:45:54.074Z,337.50
2016-11-10T06:46:54.541Z,337.50
2016-11-10T06:47:55.075Z,315.00
2016-11-10T06:48:55.548Z,315.00
2016-11-10T06:49:56.047Z,337.50
2016-11-10T06:50:56.703Z,292.50
2016-11-10T06:51:57.183Z,292.50
2016-11-10T06:52:57.558Z,247.50
2016-11-10T06:53:58.176Z,202.50
2016-11-10T06:54:58.673Z,202.50
2016-11-10T06:55:59.189Z,180.00
2016-11-10T06:56:59.552Z,180.00
2016-11-10T06:58:00.024Z,225.00
2016-11-10T06:59:00.525Z,225.00
2016-11-10T07:00:01.174Z,202.50
2016-11-10T07:01:01.520Z,202.50
2016-11-10T07:02:02.030Z,202.50
2016-11-10T07:03:02.666Z,225.00
2016-11-10T07:04:03.033Z,202.50
2016-11-10T07:05:03.531Z,225.00
2016-11-10T07:06:04.162Z,225.00
2016-11-10T07:07:04.516Z,247.50
2016-11-10T07:08:05.024Z,225.00
2016-11-10T07:09:05.656Z,202.50
2016-11-10T07:10:06.020Z,202.50
2016-11-10T07:11:06.515Z,202.50
2016-11-10T07:12:07.016Z,202.50
2016-11-10T07:13:07.556Z,225.00
2016-11-10T07:14:08.302Z,202.50
2016-11-10T07:15:08.649Z,337.50
2016-11-10T07:16:09.013Z,337.50
2016-11-10T07:17:09.500Z,337.50
2016-11-10T07:18:10.151Z,337.50
2016-11-10T07:19:10.646Z,337.50
2016-11-10T07:20:11.149Z,225.00
2016-11-10T07:21:11.505Z,337.50
2016-11-10T07:22:11.994Z,225.00
2016-11-10T07:23:12.500Z,247.50
2016-11-10T07:24:13.001Z,337.50
2016-11-10T07:25:13.651Z,337.50
2016-11-10T07:26:14.042Z,202.50
2016-11-10T07:27:14.515Z,337.50
2016-11-10T07:28:15.063Z,337.50
2016-11-10T07:29:15.655Z,247.50
2016-11-10T07:30:16.146Z,337.50
2016-11-10T07:31:16.638Z,202.50
2016-11-10T07:32:17.008Z,202.50
2016-11-10T07:33:17.496Z,225.00
2016-11-10T07:34:18.135Z,225.00
2016-11-10T07:35:18.629Z,202.50
2016-11-10T07:36:19.129Z,202.50
2016-11-10T07:37:19.620Z,202.50
2016-11-10T07:38:19.983Z,202.50
2016-11-10T07:39:20.471Z,225.00
2016-11-10T07:40:21.001Z,247.50
2016-11-10T07:41:21.467Z,247.50
2016-11-10T07:42:22.110Z,202.50
2016-11-10T07:43:22.607Z,202.50
2016-11-10T07:44:23.104Z,225.00
2016-11-10T07:45:23.455Z,202.50
2016-11-10T07:46:24.116Z,202.50
2016-11-10T07:47:24.480Z,202.50
2016-11-10T07:48:24.951Z,225.00
2016-11-10T07:49:25.462Z,202.50
2016-11-10T07:50:25.952Z,180.00
2016-11-10T07:51:26.474Z,225.00
2016-11-10T07:52:26.958Z,202.50
2016-11-10T07:53:27.456Z,202.50
2016-11-10T07:54:28.087Z,247.50
2016-11-10T07:55:28.446Z,202.50
2016-11-10T07:56:29.016Z,202.50
2016-11-10T07:57:29.578Z,180.00
2016-11-10T07:58:29.926Z,180.00
2016-11-10T07:59:30.455Z,202.50
2016-11-10T08:00:30.928Z,202.50
2016-11-10T08:01:31.434Z,247.50
2016-11-10T08:02:32.072Z,225.00
2016-11-10T08:03:32.572Z,202.50
2016-11-10T08:04:33.222Z,180.00
2016-11-10T08:05:33.572Z,337.50
2016-11-10T08:06:34.084Z,247.50
2016-11-10T08:07:34.571Z,247.50
2016-11-10T08:08:34.973Z,225.00
2016-11-10T08:09:35.439Z,202.50
2016-11-10T08:10:36.072Z,202.50
2016-11-10T08:11:36.566Z,202.50
2016-11-10T08:12:36.919Z,202.50
2016-11-10T08:13:37.562Z,202.50
2016-11-10T08:14:37.932Z,202.50
2016-11-10T08:15:38.425Z,225.00
2016-11-10T08:16:38.912Z,202.50
2016-11-10T08:17:39.410Z,225.00
2016-11-10T08:18:39.902Z,315.00
2016-11-10T08:19:40.546Z,337.50
2016-11-10T08:20:40.945Z,247.50
2016-11-10T08:21:41.420Z,247.50
2016-11-10T08:22:41.897Z,247.50
2016-11-10T08:23:42.424Z,270.00
2016-11-10T08:24:43.040Z,202.50
2016-11-10T08:25:43.391Z,202.50
2016-11-10T08:26:44.047Z,225.00
2016-11-10T08:27:44.416Z,225.00
2016-11-10T08:28:45.035Z,202.50
2016-11-10T08:29:45.416Z,202.50
2016-11-10T08:30:45.893Z,225.00
2016-11-10T08:31:46.393Z,202.50
2016-11-10T08:32:46.895Z,202.50
2016-11-10T08:33:47.384Z,225.00
2016-11-10T08:34:48.036Z,202.50
2016-11-10T08:35:48.380Z,202.50
2016-11-10T08:36:49.023Z,225.00
2016-11-10T08:37:49.384Z,337.50
2016-11-10T08:38:50.073Z,202.50
2016-11-10T08:39:50.522Z,180.00
2016-11-10T08:40:50.861Z,202.50
2016-11-10T08:41:51.373Z,270.00
2016-11-10T08:42:52.011Z,247.50
2016-11-10T08:43:52.382Z,202.50
2016-11-10T08:44:52.895Z,225.00
2016-11-10T08:45:53.381Z,225.00
2016-11-10T08:46:53.869Z,247.50
2016-11-10T08:47:54.369Z,292.50
2016-11-10T08:48:55.007Z,225.00
2016-11-10T08:49:55.527Z,225.00
2016-11-10T08:50:55.867Z,247.50
2016-11-10T08:51:56.352Z,315.00
2016-11-10T08:52:57.000Z,247.50
2016-11-10T08:53:57.358Z,337.50
2016-11-10T08:54:57.900Z,292.50
2016-11-10T08:55:58.342Z,225.00
2016-11-10T08:56:58.845Z,247.50
2016-11-10T08:57:59.491Z,315.00
2016-11-10T08:58:59.835Z,247.50
2016-11-10T09:00:00.504Z,225.00
2016-11-10T09:01:00.843Z,225.00
2016-11-10T09:02:01.334Z,247.50
2016-11-10T09:03:01.997Z,225.00
2016-11-10T09:04:02.475Z,225.00
2016-11-10T09:05:02.847Z,337.50
2016-11-10T09:06:03.342Z,270.00
2016-11-10T09:07:03.826Z,180.00
2016-11-10T09:08:04.327Z,180.00
2016-11-10T09:09:04.916Z,180.00
2016-11-10T09:10:05.491Z,180.00
2016-11-10T09:11:05.880Z,180.00
2016-11-10T09:12:06.376Z,202.50
2016-11-10T09:13:06.910Z,202.50
2016-11-10T09:14:07.393Z,180.00
2016-11-10T09:15:07.904Z,180.00
2016-11-10T09:16:08.566Z,180.00
2016-11-10T09:17:08.961Z,180.00
2016-11-10T09:18:09.479Z,225.00
2016-11-10T09:19:09.981Z,180.00
2016-11-10T09:20:10.471Z,180.00
2016-11-10T09:21:10.990Z,180.00
2016-11-10T09:22:11.650Z,225.00
2016-11-10T09:23:12.047Z,225.00
2016-11-10T09:24:12.536Z,202.50
2016-11-10T09:25:13.088Z,337.50
2016-11-10T09:26:13.597Z,292.50
2016-11-10T09:27:14.073Z,225.00
2016-11-10T09:28:14.733Z,337.50
2016-11-10T09:29:15.095Z,337.50
2016-11-10T09:30:15.612Z,337.50
2016-11-10T09:31:16.155Z,315.00
2016-11-10T09:32:16.762Z,337.50
2016-11-10T09:33:17.118Z,337.50
2016-11-10T09:34:17.765Z,337.50
2016-11-10T09:35:18.118Z,337.50
2016-11-10T09:36:18.627Z,337.50
2016-11-10T09:37:19.118Z,337.50
2016-11-10T09:38:19.624Z,292.50
2016-11-10T09:39:20.276Z,337.50
2016-11-10T09:40:20.632Z,292.50
2016-11-10T09:41:21.121Z,337.50
2016-11-10T09:42:21.644Z,337.50
2016-11-10T09:43:22.142Z,337.50
2016-11-10T09:44:22.777Z,337.50
2016-11-10T09:45:23.145Z,337.50
2016-11-10T09:46:23.636Z,337.50
2016-11-10T09:47:24.159Z,337.50
2016-11-10T09:48:24.791Z,270.00
2016-11-10T09:49:25.300Z,337.50
2016-11-10T09:50:25.804Z,337.50
2016-11-10T09:51:26.159Z,270.00
2016-11-10T09:52:26.652Z,247.50
2016-11-10T09:53:27.167Z,247.50
2016-11-10T09:54:27.804Z,337.50
2016-11-10T09:55:28.161Z,337.50
2016-11-10T09:56:28.805Z,337.50
2016-11-10T09:57:29.162Z,337.50
2016-11-10T09:58:29.667Z,337.50
2016-11-10T09:59:30.321Z,337.50
2016-11-10T10:00:30.696Z,315.00
2016-11-10T10:01:31.226Z,292.50
2016-11-10T10:02:31.699Z,247.50
2016-11-10T10:03:32.356Z,315.00
2016-11-10T10:04:32.720Z,337.50
2016-11-10T10:05:33.236Z,337.50
2016-11-10T10:06:33.725Z,337.50
2016-11-10T10:07:34.223Z,180.00
2016-11-10T10:08:34.739Z,202.50
2016-11-10T10:09:35.252Z,202.50
2016-11-10T10:10:35.882Z,202.50
2016-11-10T10:11:36.239Z,202.50
2016-11-10T10:12:36.894Z,180.00
2016-11-10T10:13:37.239Z,180.00
2016-11-10T10:14:37.745Z,247.50
2016-11-10T10:15:38.257Z,337.50
2016-11-10T10:16:38.761Z,90.00
2016-11-10T10:17:39.402Z,202.50
2016-11-10T10:18:39.756Z,180.00
2016-11-10T10:19:40.293Z,202.50
2016-11-10T10:20:40.910Z,202.50
2016-11-10T10:21:41.292Z,180.00
2016-11-10T10:22:41.777Z,180.00
2016-11-10T10:23:42.286Z,180.00
2016-11-10T10:24:42.922Z,180.00
2016-11-10T10:25:43.306Z,202.50
2016-11-10T10:26:43.795Z,202.50
2016-11-10T10:27:44.299Z,202.50
2016-11-10T10:28:44.940Z,180.00
2016-11-10T10:29:45.335Z,180.00
2016-11-10T10:30:45.949Z,180.00
2016-11-10T10:31:46.298Z,202.50
2016-11-10T10:32:46.805Z,157.50
2016-11-10T10:33:47.326Z,180.00
2016-11-10T10:34:47.825Z,247.50
2016-11-10T10:35:48.326Z,202.50
2016-11-10T10:36:48.959Z,180.00
2016-11-10T10:37:49.350Z,157.50
2016-11-10T10:38:49.966Z,135.00
2016-11-10T10:39:50.350Z,225.00
2016-11-10T10:40:50.843Z,180.00
2016-11-10T10:41:51.352Z,180.00
2016-11-10T10:42:51.867Z,180.00
2016-11-10T10:43:52.506Z,180.00
2016-11-10T10:44:52.864Z,202.50
2016-11-10T10:45:53.363Z,180.00
2016-11-10T10:46:53.871Z,180.00
2016-11-10T10:47:54.402Z,180.00
2016-11-10T10:48:54.875Z,270.00
2016-11-10T10:49:55.376Z,225.00
2016-11-10T10:50:56.019Z,202.50
2016-11-10T10:51:56.376Z,180.00
2016-11-10T10:52:56.889Z,202.50
2016-11-10T10:53:57.419Z,157.50
2016-11-10T10:54:57.882Z,180.00
2016-11-10T10:55:58.416Z,247.50
2016-11-10T10:56:58.901Z,202.50
2016-11-10T10:57:59.544Z,180.00
2016-11-10T10:58:59.899Z,202.50
2016-11-10T11:00:00.414Z,157.50
2016-11-10T11:01:00.910Z,135.00
2016-11-10T11:02:01.443Z,180.00
2016-11-10T11:03:01.910Z,180.00
2016-11-10T11:04:02.415Z,225.00
2016-11-10T11:05:02.923Z,270.00
2016-11-10T11:06:03.565Z,225.00
2016-11-10T11:07:03.936Z,225.00
2016-11-10T11:08:04.456Z,225.00
2016-11-10T11:09:05.076Z,225.00
2016-11-10T11:10:05.586Z,180.00
2016-11-10T11:11:05.950Z,225.00
2016-11-10T11:12:06.469Z,180.00
2016-11-10T11:13:06.959Z,157.50
2016-11-10T11:14:07.603Z,337.50
2016-11-10T11:15:07.960Z,157.50
2016-11-10T11:16:08.451Z,157.50
2016-11-10T11:17:09.106Z,157.50
2016-11-10T11:18:09.476Z,157.50
2016-11-10T11:19:10.120Z,270.00
2016-11-10T11:20:10.520Z,337.50
2016-11-10T11:21:10.995Z,270.00
2016-11-10T11:22:11.525Z,315.00
2016-11-10T11:23:12.028Z,225.00
2016-11-10T11:24:12.519Z,247.50
2016-11-10T11:25:13.020Z,225.00
2016-11-10T11:26:13.517Z,225.00
2016-11-10T11:27:14.016Z,247.50
2016-11-10T11:28:14.671Z,157.50
2016-11-10T11:29:15.028Z,202.50
2016-11-10T11:30:15.562Z,247.50
2016-11-10T11:31:16.173Z,202.50
2016-11-10T11:32:16.681Z,180.00
2016-11-10T11:33:17.039Z,202.50
2016-11-10T11:34:17.692Z,337.50
2016-11-10T11:35:18.057Z,315.00
2016-11-10T11:36:18.695Z,247.50
2016-11-10T11:37:19.192Z,202.50
2016-11-10T11:38:19.696Z,202.50
2016-11-10T11:39:20.058Z,225.00
2016-11-10T11:40:20.559Z,202.50
2016-11-10T11:41:21.203Z,247.50
2016-11-10T11:42:21.560Z,225.00
2016-11-10T11:43:22.099Z,337.50
2016-11-10T11:44:22.725Z,337.50
2016-11-10T11:45:23.073Z,337.50
2016-11-10T11:46:23.594Z,337.50
2016-11-10T11:47:24.221Z,337.50
2016-11-10T11:48:24.611Z,225.00
2016-11-10T11:49:25.101Z,225.00
2016-11-10T11:50:25.617Z,202.50
2016-11-10T11:51:26.084Z,180.00
2016-11-10T11:52:26.594Z,180.00
2016-11-10T11:53:27.094Z,202.50
2016-11-10T11:54:27.600Z,202.50
2016-11-10T11:55:28.097Z,337.50
2016-11-10T11:56:28.610Z,202.50
2016-11-10T11:57:29.100Z,202.50
2016-11-10T11:58:29.619Z,225.00
2016-11-10T11:59:30.264Z,270.00
2016-11-10T12:00:30.794Z,247.50
2016-11-10T12:01:31.157Z,225.00
2016-11-10T12:02:31.791Z,225.00
2016-11-10T12:03:32.293Z,202.50
2016-11-10T12:04:32.806Z,157.50
2016-11-10T12:05:33.301Z,180.00
2016-11-10T12:06:33.805Z,247.50
2016-11-10T12:07:34.310Z,202.50
2016-11-10T12:08:34.686Z,225.00
2016-11-10T12:09:35.315Z,247.50
2016-11-10T12:10:35.695Z,202.50
2016-11-10T12:11:36.195Z,180.00
2016-11-10T12:12:36.692Z,225.00
2016-11-10T12:13:37.213Z,315.00
2016-11-10T12:14:39.339Z,225.00
2016-11-10T12:15:38.342Z,337.50
2016-11-10T12:16:38.700Z,270.00
2016-11-10T12:17:39.350Z,247.50
2016-11-10T12:18:39.731Z,225.00
2016-11-10T12:19:40.213Z,180.00
2016-11-10T12:20:40.854Z,157.50
2016-11-10T12:21:41.359Z,225.00
2016-11-10T12:22:41.716Z,247.50
2016-11-10T12:23:42.369Z,247.50
2016-11-10T12:24:42.733Z,202.50
2016-11-10T12:25:43.367Z,247.50
2016-11-10T12:26:43.877Z,225.00
2016-11-10T12:27:44.236Z,157.50
2016-11-10T12:28:44.877Z,337.50
2016-11-10T12:29:45.246Z,225.00
2016-11-10T12:30:45.884Z,247.50
2016-11-10T12:31:46.237Z,157.50
2016-11-10T12:32:46.741Z,180.00
2016-11-10T12:33:47.273Z,247.50
2016-11-10T12:34:47.885Z,157.50